Time;durP1;ratioP1;P1;durP2;ratioP2;P2;SDS_P1;SDS_P2;PMS_P1;PMS_P2;Temp;Humidity;BMP_temperature;BMP_pressure;BME280_temperature;BME280_humidity;BME280_pressure;Samples;Min_cycle;Max_cycle;Signal;HPM_P1;HPM_P2
2022/05/12 00:00:22;;;;;;;4.17;2.00;;;;;;;;;;4984736;28;20264;-68
2022/05/12 00:02:48;;;;;;;6.03;2.13;;;;;;;;;;4982269;28;20212;-68
2022/05/12 00:05:14;;;;;;;5.43;2.20;;;;;;;;;;4987839;28;20234;-68
2022/05/12 00:07:41;;;;;;;4.10;2.17;;;;;;;;;;4983329;28;20201;-68
2022/05/12 00:10:08;;;;;;;5.90;2.20;;;;;;;;;;4984125;28;20178;-68
2022/05/12 00:12:34;;;;;;;7.17;2.30;;;;;;;;;;4983577;28;21256;-68
2022/05/12 00:15:00;;;;;;;3.67;2.40;;;;;;;;;;4983219;28;20275;-68
2022/05/12 00:17:26;;;;;;;2.77;1.97;;;;;;;;;;4985636;28;20193;-68
2022/05/12 00:19:52;;;;;;;2.77;2.00;;;;;;;;;;4977968;28;20849;-69
2022/05/12 00:22:17;;;;;;;2.87;2.03;;;;;;;;;;4985287;28;20178;-68
2022/05/12 00:24:43;;;;;;;4.70;2.60;;;;;;;;;;4986483;28;20194;-68
2022/05/12 00:27:09;;;;;;;4.67;2.27;;;;;;;;;;4982003;28;20214;-69
2022/05/12 00:29:35;;;;;;;4.50;2.27;;;;;;;;;;4987396;28;20277;-69
2022/05/12 00:32:01;;;;;;;5.83;2.50;;;;;;;;;;4987691;28;20189;-68
2022/05/12 00:34:27;;;;;;;6.33;2.50;;;;;;;;;;4983231;28;20221;-68
2022/05/12 00:36:53;;;;;;;4.60;2.30;;;;;;;;;;4985769;28;20324;-68
2022/05/12 00:39:19;;;;;;;4.70;2.53;;;;;;;;;;4986162;28;20225;-68
2022/05/12 00:41:45;;;;;;;6.53;1.97;;;;;;;;;;4987330;28;20194;-69
2022/05/12 00:44:12;;;;;;;7.60;2.57;;;;;;;;;;4980227;28;20616;-68
2022/05/12 00:46:38;;;;;;;4.40;2.20;;;;;;;;;;4985624;28;20187;-69
2022/05/12 00:49:04;;;;;;;5.27;2.40;;;;;;;;;;4983638;28;20767;-68
2022/05/12 00:51:35;;;;;;;4.73;2.27;;;;;;;;;;4989870;28;20190;-68
2022/05/12 00:54:02;;;;;;;5.47;2.47;;;;;;;;;;4989451;28;20643;-69
2022/05/12 00:56:28;;;;;;;5.67;2.83;;;;;;;;;;4995083;28;20237;-69
2022/05/12 00:58:55;;;;;;;3.60;1.70;;;;;;;;;;4990561;28;20202;-68
2022/05/12 01:01:21;;;;;;;6.93;2.23;;;;;;;;;;4985849;28;20197;-68
2022/05/12 01:03:47;;;;;;;4.43;2.13;;;;;;;;;;4971892;28;20786;-69
2022/05/12 01:06:14;;;;;;;4.53;2.30;;;;;;;;;;4951549;28;20662;-69
2022/05/12 01:08:40;;;;;;;5.17;2.20;;;;;;;;;;4980784;28;20210;-69
2022/05/12 01:11:12;;;;;;;5.23;2.43;;;;;;;;;;4986913;28;20251;-69
2022/05/12 01:13:38;;;;;;;3.17;2.30;;;;;;;;;;4954930;28;20217;-69
2022/05/12 01:16:05;;;;;;;4.90;2.30;;;;;;;;;;4975855;28;20190;-69
2022/05/12 01:18:31;;;;;;;10.27;2.47;;;;;;;;;;4985326;28;20212;-69
2022/05/12 01:20:58;;;;;;;5.70;2.33;;;;;;;;;;4992846;28;20251;-69
2022/05/12 01:23:25;;;;;;;5.73;2.90;;;;;;;;;;4985311;28;20591;-68
2022/05/12 01:25:53;;;;;;;3.97;2.10;;;;;;;;;;4989413;28;20228;-69
2022/05/12 01:28:19;;;;;;;5.70;2.23;;;;;;;;;;4985847;28;20210;-69
2022/05/12 01:30:45;;;;;;;5.83;2.63;;;;;;;;;;4972655;28;20269;-69
2022/05/12 01:33:11;;;;;;;4.27;2.43;;;;;;;;;;4979628;28;20185;-69
2022/05/12 01:35:37;;;;;;;5.20;2.70;;;;;;;;;;4990346;28;21150;-71
2022/05/12 01:38:03;;;;;;;4.00;2.70;;;;;;;;;;4991498;28;20281;-71
2022/05/12 01:40:29;;;;;;;5.73;2.30;;;;;;;;;;4990192;28;20304;-70
2022/05/12 01:42:55;;;;;;;2.83;2.23;;;;;;;;;;4988011;28;20195;-70
2022/05/12 01:45:21;;;;;;;5.73;2.53;;;;;;;;;;4986901;28;20196;-70
2022/05/12 01:47:47;;;;;;;5.83;2.77;;;;;;;;;;4988120;28;20198;-71
2022/05/12 01:50:14;;;;;;;4.80;2.60;;;;;;;;;;4989815;28;20189;-70
2022/05/12 01:52:43;;;;;;;4.00;2.20;;;;;;;;;;4988807;28;20178;-70
2022/05/12 01:55:10;;;;;;;7.67;2.50;;;;;;;;;;4992429;28;20551;-70
2022/05/12 01:57:36;;;;;;;6.67;2.50;;;;;;;;;;5006547;28;20193;-70
2022/05/12 02:00:02;;;;;;;3.93;2.40;;;;;;;;;;4984225;28;20725;-70
2022/05/12 02:02:28;;;;;;;5.37;3.03;;;;;;;;;;4985696;28;20663;-71
2022/05/12 02:04:54;;;;;;;5.27;2.93;;;;;;;;;;4977697;28;20240;-70
2022/05/12 02:07:20;;;;;;;5.90;2.80;;;;;;;;;;4982510;28;20185;-71
2022/05/12 02:09:45;;;;;;;4.73;2.37;;;;;;;;;;4982400;28;20306;-71
2022/05/12 02:12:11;;;;;;;3.80;2.50;;;;;;;;;;4990678;28;20181;-70
2022/05/12 02:14:37;;;;;;;6.50;2.70;;;;;;;;;;4984001;28;21321;-71
2022/05/12 02:17:03;;;;;;;4.43;2.43;;;;;;;;;;4981613;28;20216;-70
2022/05/12 02:19:30;;;;;;;6.07;3.03;;;;;;;;;;4985254;28;20264;-70
2022/05/12 02:21:58;;;;;;;4.13;2.47;;;;;;;;;;4979503;28;20189;-70
2022/05/12 02:24:24;;;;;;;6.00;2.70;;;;;;;;;;4989059;28;20558;-71
2022/05/12 02:26:49;;;;;;;4.13;2.47;;;;;;;;;;4986395;28;20213;-70
2022/05/12 02:29:15;;;;;;;5.17;3.10;;;;;;;;;;4982080;28;20210;-70
2022/05/12 02:31:41;;;;;;;4.67;2.47;;;;;;;;;;4965884;28;20202;-71
2022/05/12 02:34:07;;;;;;;3.70;2.60;;;;;;;;;;4962526;28;20198;-70
2022/05/12 02:36:33;;;;;;;6.63;2.80;;;;;;;;;;4975620;28;20274;-70
2022/05/12 02:38:59;;;;;;;3.57;2.90;;;;;;;;;;4988752;28;20209;-70
2022/05/12 02:41:25;;;;;;;4.33;2.57;;;;;;;;;;4992739;28;20201;-70
2022/05/12 02:43:52;;;;;;;4.00;2.63;;;;;;;;;;4985845;28;20189;-70
2022/05/12 02:46:18;;;;;;;6.50;3.00;;;;;;;;;;4981316;28;20248;-70
2022/05/12 02:48:44;;;;;;;4.37;2.80;;;;;;;;;;4980613;28;20213;-70
2022/05/12 02:51:10;;;;;;;4.90;3.17;;;;;;;;;;4985446;28;20194;-70
2022/05/12 02:53:37;;;;;;;5.20;3.00;;;;;;;;;;4994620;28;20193;-70
2022/05/12 02:56:02;;;;;;;6.17;2.90;;;;;;;;;;4986052;28;20177;-70
2022/05/12 02:58:28;;;;;;;3.63;2.90;;;;;;;;;;4986910;28;20189;-71
2022/05/12 03:00:55;;;;;;;4.73;2.90;;;;;;;;;;4988429;28;20281;-70
2022/05/12 03:03:20;;;;;;;3.73;2.93;;;;;;;;;;4988219;28;20713;-70
2022/05/12 03:05:46;;;;;;;6.10;3.53;;;;;;;;;;4985688;28;20194;-71
2022/05/12 03:08:12;;;;;;;4.17;3.07;;;;;;;;;;4989095;28;20229;-70
2022/05/12 03:10:38;;;;;;;4.50;2.93;;;;;;;;;;4997413;28;20240;-71
2022/05/12 03:13:05;;;;;;;7.30;3.13;;;;;;;;;;4994275;28;20182;-71
2022/05/12 03:15:30;;;;;;;4.93;3.20;;;;;;;;;;4987017;28;20243;-70
2022/05/12 03:17:57;;;;;;;4.53;3.00;;;;;;;;;;4985878;28;20654;-70
2022/05/12 03:20:23;;;;;;;4.77;3.30;;;;;;;;;;4988537;28;20320;-70
2022/05/12 03:22:49;;;;;;;5.93;3.20;;;;;;;;;;4989200;28;20222;-70
2022/05/12 03:25:15;;;;;;;4.90;3.50;;;;;;;;;;4990423;28;20770;-71
2022/05/12 03:27:41;;;;;;;5.93;3.53;;;;;;;;;;4988995;28;20190;-70
2022/05/12 03:30:09;;;;;;;4.20;3.40;;;;;;;;;;4982452;28;20204;-70
2022/05/12 03:32:35;;;;;;;4.20;3.50;;;;;;;;;;4952741;28;21573;-71
2022/05/12 03:35:01;;;;;;;5.50;3.80;;;;;;;;;;4976535;28;20192;-70
2022/05/12 03:37:27;;;;;;;4.83;3.60;;;;;;;;;;4984402;28;20190;-70
2022/05/12 03:39:53;;;;;;;5.33;3.67;;;;;;;;;;4991694;28;20194;-70
2022/05/12 03:42:19;;;;;;;6.50;4.00;;;;;;;;;;4989106;28;20288;-71
2022/05/12 03:44:54;;;;;;;6.17;3.73;;;;;;;;;;4989791;28;20200;-70
2022/05/12 03:47:20;;;;;;;6.47;4.53;;;;;;;;;;4981903;28;20189;-70
2022/05/12 03:49:49;;;;;;;5.37;3.57;;;;;;;;;;4980582;28;20214;-70
2022/05/12 03:52:15;;;;;;;4.20;3.60;;;;;;;;;;4990412;28;20276;-70
2022/05/12 03:54:41;;;;;;;5.57;3.50;;;;;;;;;;4976379;28;20194;-72
2022/05/12 03:57:07;;;;;;;4.97;3.53;;;;;;;;;;4992917;28;20196;-71
2022/05/12 03:59:34;;;;;;;3.80;3.30;;;;;;;;;;4984465;28;20277;-70
2022/05/12 04:02:00;;;;;;;4.77;3.70;;;;;;;;;;4983413;28;20185;-70
2022/05/12 04:04:26;;;;;;;8.20;4.20;;;;;;;;;;4986791;28;20248;-70
2022/05/12 04:06:52;;;;;;;5.77;3.97;;;;;;;;;;4981422;28;20229;-70
2022/05/12 04:09:18;;;;;;;5.60;3.63;;;;;;;;;;4965807;28;20244;-70
2022/05/12 04:11:44;;;;;;;4.90;3.30;;;;;;;;;;4987900;28;20288;-70
2022/05/12 04:14:10;;;;;;;4.83;3.63;;;;;;;;;;4978451;28;20193;-70
2022/05/12 04:16:36;;;;;;;5.30;3.87;;;;;;;;;;4979588;28;20194;-70
2022/05/12 04:19:05;;;;;;;5.20;3.20;;;;;;;;;;4975084;28;20249;-70
2022/05/12 04:21:34;;;;;;;6.37;3.60;;;;;;;;;;4982073;28;20382;-70
2022/05/12 04:24:00;;;;;;;6.57;3.70;;;;;;;;;;4985291;28;20183;-70
2022/05/12 04:26:26;;;;;;;4.77;3.17;;;;;;;;;;4987603;28;20197;-70
2022/05/12 04:28:52;;;;;;;4.50;3.20;;;;;;;;;;4978147;28;20225;-70
2022/05/12 04:31:18;;;;;;;4.53;3.77;;;;;;;;;;4987324;28;20182;-70
2022/05/12 04:36:28;;;;;;;5.30;3.80;;;;;;;;;;4982236;28;20239;-70
2022/05/12 04:38:54;;;;;;;6.20;3.80;;;;;;;;;;4978484;28;20674;-70
2022/05/12 04:41:21;;;;;;;4.03;3.57;;;;;;;;;;4992968;28;20187;-70
2022/05/12 04:43:46;;;;;;;6.30;3.80;;;;;;;;;;4988701;28;20196;-70
2022/05/12 04:46:12;;;;;;;8.33;3.70;;;;;;;;;;4961307;28;20190;-70
2022/05/12 04:48:38;;;;;;;6.63;4.17;;;;;;;;;;4979193;28;20293;-70
2022/05/12 04:51:04;;;;;;;7.03;3.70;;;;;;;;;;4985514;28;20186;-70
2022/05/12 04:53:30;;;;;;;7.33;3.77;;;;;;;;;;4981869;28;20196;-70
2022/05/12 04:55:56;;;;;;;6.67;4.07;;;;;;;;;;4978826;28;20186;-69
2022/05/12 04:58:23;;;;;;;4.83;3.57;;;;;;;;;;4984691;28;20277;-70
2022/05/12 05:00:49;;;;;;;7.77;3.60;;;;;;;;;;4984702;28;20661;-70
2022/05/12 05:03:15;;;;;;;4.27;3.10;;;;;;;;;;4977044;28;20213;-70
2022/05/12 05:05:41;;;;;;;6.90;3.63;;;;;;;;;;4985027;28;20193;-71
2022/05/12 05:08:08;;;;;;;5.70;3.23;;;;;;;;;;4984051;28;20301;-70
2022/05/12 05:10:34;;;;;;;5.53;3.27;;;;;;;;;;4978167;28;20200;-70
2022/05/12 05:13:00;;;;;;;6.17;2.87;;;;;;;;;;4984507;28;20240;-71
2022/05/12 05:15:27;;;;;;;6.30;3.90;;;;;;;;;;4980508;28;20218;-72
2022/05/12 05:17:53;;;;;;;8.70;3.30;;;;;;;;;;4994757;28;20252;-71
2022/05/12 05:20:23;;;;;;;4.60;3.37;;;;;;;;;;4995209;28;20320;-71
2022/05/12 05:22:49;;;;;;;7.80;3.27;;;;;;;;;;4994244;28;20178;-71
2022/05/12 05:25:16;;;;;;;11.20;3.33;;;;;;;;;;4992829;28;20223;-71
2022/05/12 05:27:41;;;;;;;9.67;3.90;;;;;;;;;;4992746;28;20277;-71
2022/05/12 05:30:09;;;;;;;4.80;3.00;;;;;;;;;;4996880;28;20213;-71
2022/05/12 05:32:35;;;;;;;9.80;3.93;;;;;;;;;;4994703;28;20189;-71
2022/05/12 05:35:01;;;;;;;5.13;2.87;;;;;;;;;;4994087;28;22237;-71
2022/05/12 05:37:26;;;;;;;6.33;3.10;;;;;;;;;;4991141;28;20189;-71
2022/05/12 05:39:52;;;;;;;7.00;3.10;;;;;;;;;;4999767;28;20664;-71
2022/05/12 05:42:19;;;;;;;7.27;3.13;;;;;;;;;;4990026;28;20186;-72
2022/05/12 05:44:45;;;;;;;6.83;2.90;;;;;;;;;;4992503;28;20718;-71
2022/05/12 05:47:11;;;;;;;10.37;3.90;;;;;;;;;;4995750;28;20194;-71
2022/05/12 05:49:37;;;;;;;8.33;3.50;;;;;;;;;;4992148;28;20223;-71
2022/05/12 05:54:48;;;;;;;8.20;3.70;;;;;;;;;;4992027;28;20240;-71
2022/05/12 05:57:14;;;;;;;9.20;3.60;;;;;;;;;;4986716;28;20186;-71
2022/05/12 05:59:40;;;;;;;9.63;2.73;;;;;;;;;;4994418;28;20193;-71
2022/05/12 06:02:06;;;;;;;6.37;3.00;;;;;;;;;;4985305;28;20275;-71
2022/05/12 06:04:32;;;;;;;7.03;2.73;;;;;;;;;;4986492;28;20378;-71
2022/05/12 06:06:58;;;;;;;10.03;3.40;;;;;;;;;;4987876;28;20197;-71
2022/05/12 06:09:25;;;;;;;7.07;3.00;;;;;;;;;;4973492;28;20221;-72
2022/05/12 06:11:51;;;;;;;10.80;2.90;;;;;;;;;;4989324;28;20276;-73
2022/05/12 06:14:17;;;;;;;19.23;3.47;;;;;;;;;;4987933;28;20273;-71
2022/05/12 06:16:43;;;;;;;18.73;3.90;;;;;;;;;;4986793;28;20190;-72
2022/05/12 06:19:09;;;;;;;14.33;2.70;;;;;;;;;;4988104;28;20195;-71
2022/05/12 06:21:36;;;;;;;7.17;3.10;;;;;;;;;;4979664;28;20205;-72
2022/05/12 06:24:02;;;;;;;10.17;3.97;;;;;;;;;;4982150;28;20190;-72
2022/05/12 06:26:28;;;;;;;8.77;3.13;;;;;;;;;;4997476;28;20744;-73
2022/05/12 06:28:55;;;;;;;6.40;3.37;;;;;;;;;;4994434;28;20221;-72
2022/05/12 06:31:25;;;;;;;10.17;4.53;;;;;;;;;;4990778;28;20193;-72
2022/05/12 06:33:52;;;;;;;10.57;5.20;;;;;;;;;;4992324;28;20202;-72
2022/05/12 06:36:18;;;;;;;13.60;5.20;;;;;;;;;;4974005;28;20236;-72
2022/05/12 06:38:44;;;;;;;9.30;5.40;;;;;;;;;;4982193;28;20185;-73
2022/05/12 06:41:10;;;;;;;9.07;6.30;;;;;;;;;;4988839;28;20198;-72
2022/05/12 06:43:36;;;;;;;10.37;5.40;;;;;;;;;;4989208;28;20189;-72
2022/05/12 06:46:02;;;;;;;8.77;6.00;;;;;;;;;;4979728;28;20332;-72
2022/05/12 06:48:28;;;;;;;12.63;6.00;;;;;;;;;;4987695;28;20210;-72
2022/05/12 06:50:54;;;;;;;15.23;5.90;;;;;;;;;;4993104;28;20186;-72
2022/05/12 06:53:20;;;;;;;9.50;6.03;;;;;;;;;;4988593;28;21620;-72
2022/05/12 06:55:46;;;;;;;10.47;5.90;;;;;;;;;;4990568;28;20614;-72
2022/05/12 06:58:14;;;;;;;7.40;5.23;;;;;;;;;;4991034;28;20178;-72
2022/05/12 07:00:40;;;;;;;9.07;5.03;;;;;;;;;;4992790;28;20182;-72
2022/05/12 07:03:06;;;;;;;10.47;5.53;;;;;;;;;;4979144;28;22005;-72
2022/05/12 07:05:32;;;;;;;8.40;4.73;;;;;;;;;;4982182;28;20194;-72
2022/05/12 07:07:58;;;;;;;7.67;3.67;;;;;;;;;;4993111;28;20268;-74
2022/05/12 07:10:25;;;;;;;8.37;4.37;;;;;;;;;;4987210;28;20317;-72
2022/05/12 07:12:51;;;;;;;8.77;4.60;;;;;;;;;;4991901;28;20635;-72
2022/05/12 07:15:17;;;;;;;5.93;4.00;;;;;;;;;;4972380;28;20189;-72
2022/05/12 07:17:44;;;;;;;6.50;4.30;;;;;;;;;;4995279;28;20186;-72
2022/05/12 07:28:25;;;;;;;8.00;4.17;;;;;;;;;;4990626;28;20209;-72
2022/05/12 07:31:00;;;;;;;7.83;4.00;;;;;;;;;;4983103;28;20344;-72
2022/05/12 07:33:36;;;;;;;7.43;4.47;;;;;;;;;;4991339;28;20241;-72
2022/05/12 07:36:03;;;;;;;5.87;4.00;;;;;;;;;;4994962;28;20755;-73
2022/05/12 07:38:30;;;;;;;5.57;3.43;;;;;;;;;;4995935;28;20551;-72
2022/05/12 07:40:56;;;;;;;6.27;3.63;;;;;;;;;;4987291;28;20255;-72
2022/05/12 07:43:22;;;;;;;7.23;4.10;;;;;;;;;;4988322;28;21474;-72
2022/05/12 07:45:48;;;;;;;5.28;3.42;;;;;;;;;;4995974;28;20194;-72
2022/05/12 07:48:14;;;;;;;7.20;3.30;;;;;;;;;;4991304;28;20575;-73
2022/05/12 07:50:40;;;;;;;10.17;3.77;;;;;;;;;;4992158;28;20194;-74
2022/05/12 07:53:07;;;;;;;7.97;3.35;;;;;;;;;;4996159;28;20190;-72
2022/05/12 07:55:33;;;;;;;5.18;3.13;;;;;;;;;;4996340;28;20300;-72
2022/05/12 07:58:03;;;;;;;5.50;3.33;;;;;;;;;;4995933;28;20292;-73
2022/05/12 08:00:30;;;;;;;7.05;3.22;;;;;;;;;;4987301;28;20177;-72
2022/05/12 08:02:56;;;;;;;5.57;3.05;;;;;;;;;;4980717;28;20593;-72
2022/05/12 08:05:22;;;;;;;5.30;3.00;;;;;;;;;;4966081;28;20240;-72
2022/05/12 08:07:48;;;;;;;4.53;2.97;;;;;;;;;;4984966;28;20197;-72
2022/05/12 08:10:14;;;;;;;4.97;2.88;;;;;;;;;;4990425;28;20221;-72
2022/05/12 08:12:40;;;;;;;4.07;2.83;;;;;;;;;;4981495;28;20214;-73
2022/05/12 08:15:06;;;;;;;4.63;2.80;;;;;;;;;;4987614;28;20193;-72
2022/05/12 08:17:32;;;;;;;6.35;3.10;;;;;;;;;;4990739;28;20271;-73
2022/05/12 08:19:58;;;;;;;4.70;2.75;;;;;;;;;;4985225;28;20651;-72
2022/05/12 08:22:24;;;;;;;6.70;3.10;;;;;;;;;;4991540;28;20651;-72
2022/05/12 08:24:51;;;;;;;4.22;2.90;;;;;;;;;;4986134;28;20197;-72
2022/05/12 08:27:17;;;;;;;4.40;2.90;;;;;;;;;;4987215;28;20182;-73
2022/05/12 08:29:43;;;;;;;5.50;2.97;;;;;;;;;;4992118;28;20267;-72
2022/05/12 08:32:09;;;;;;;4.60;2.90;;;;;;;;;;4987289;28;20191;-73
2022/05/12 08:34:35;;;;;;;5.63;2.90;;;;;;;;;;4987401;28;20265;-72
2022/05/12 08:37:01;;;;;;;2.83;2.45;;;;;;;;;;4980631;28;20268;-72
2022/05/12 08:39:27;;;;;;;4.45;2.63;;;;;;;;;;4970647;28;20290;-72
2022/05/12 08:41:58;;;;;;;3.58;2.63;;;;;;;;;;4969969;28;20194;-72
2022/05/12 08:44:24;;;;;;;4.25;2.80;;;;;;;;;;4993042;28;20190;-72
2022/05/12 08:46:57;;;;;;;4.45;2.65;;;;;;;;;;4982268;28;20574;-72
2022/05/12 08:49:27;;;;;;;5.22;2.63;;;;;;;;;;4990010;28;20210;-72
2022/05/12 08:51:55;;;;;;;4.13;2.72;;;;;;;;;;4995068;28;20186;-73
2022/05/12 08:54:22;;;;;;;2.50;2.30;;;;;;;;;;4973139;28;20276;-72
2022/05/12 08:56:48;;;;;;;5.28;2.67;;;;;;;;;;4996746;28;20220;-72
2022/05/12 08:59:14;;;;;;;6.30;3.05;;;;;;;;;;4981511;28;20178;-72
2022/05/12 09:01:42;;;;;;;3.95;2.45;;;;;;;;;;4984696;28;20641;-72
2022/05/12 09:04:23;;;;;;;3.75;2.53;;;;;;;;;;4979890;28;20643;-72
2022/05/12 09:07:04;;;;;;;3.03;2.13;;;;;;;;;;4982632;28;20190;-72
2022/05/12 09:09:36;;;;;;;4.05;2.45;;;;;;;;;;4978760;28;20209;-72
2022/05/12 09:12:05;;;;;;;3.88;2.35;;;;;;;;;;4991461;28;20240;-72
2022/05/12 09:14:40;;;;;;;4.07;2.25;;;;;;;;;;4992691;28;20611;-72
2022/05/12 09:17:06;;;;;;;3.17;2.20;;;;;;;;;;4991621;28;20214;-71
2022/05/12 09:19:32;;;;;;;4.25;2.33;;;;;;;;;;4989740;28;20277;-72
2022/05/12 09:21:58;;;;;;;3.83;1.90;;;;;;;;;;4993574;28;20282;-72
2022/05/12 09:24:24;;;;;;;3.58;2.00;;;;;;;;;;4995589;28;20272;-72
2022/05/12 09:26:51;;;;;;;3.40;2.00;;;;;;;;;;4992105;28;20252;-72
2022/05/12 09:29:17;;;;;;;2.15;1.73;;;;;;;;;;4990361;28;20683;-73
2022/05/12 09:32:06;;;;;;;2.50;1.85;;;;;;;;;;4988036;28;20189;-72
2022/05/12 09:34:34;;;;;;;4.30;2.20;;;;;;;;;;4969550;28;20657;-74
2022/05/12 09:37:19;;;;;;;3.95;2.10;;;;;;;;;;4980649;28;20221;-75
2022/05/12 09:39:46;;;;;;;5.10;2.65;;;;;;;;;;4982441;28;20202;-75
2022/05/12 09:42:26;;;;;;;3.97;2.42;;;;;;;;;;4988644;28;21030;-75
2022/05/12 09:44:53;;;;;;;4.47;2.30;;;;;;;;;;4984005;28;20193;-74
2022/05/12 09:47:19;;;;;;;5.97;2.40;;;;;;;;;;4985759;28;21171;-74
2022/05/12 09:49:46;;;;;;;3.92;2.40;;;;;;;;;;4990250;28;20218;-75
2022/05/12 09:52:24;;;;;;;5.07;2.00;;;;;;;;;;4989897;28;20185;-74
2022/05/12 09:54:55;;;;;;;5.53;2.42;;;;;;;;;;4982234;28;20183;-73
2022/05/12 09:57:24;;;;;;;7.10;2.63;;;;;;;;;;4979639;28;20212;-75
2022/05/12 09:59:59;;;;;;;14.00;2.47;;;;;;;;;;4985342;28;20197;-74
2022/05/12 10:08:00;;;;;;;4.57;1.92;;;;;;;;;;4994961;28;20383;-70
2022/05/12 10:10:26;;;;;;;4.53;1.80;;;;;;;;;;4988326;28;20190;-70
2022/05/12 10:12:56;;;;;;;3.47;1.80;;;;;;;;;;4995974;28;20186;-70
2022/05/12 10:15:29;;;;;;;3.25;1.90;;;;;;;;;;4995748;28;20197;-71
2022/05/12 10:18:15;;;;;;;3.80;1.70;;;;;;;;;;4997749;28;20261;-70
2022/05/12 10:20:41;;;;;;;3.03;1.70;;;;;;;;;;4994540;28;20265;-70
2022/05/12 10:23:27;;;;;;;3.38;1.50;;;;;;;;;;4994295;28;20194;-71
2022/05/12 10:26:03;;;;;;;1.98;1.40;;;;;;;;;;4994093;28;20272;-71
2022/05/12 10:28:31;;;;;;;2.60;1.52;;;;;;;;;;4991411;28;20864;-70
2022/05/12 10:30:59;;;;;;;3.20;1.50;;;;;;;;;;5001785;28;20205;-71
2022/05/12 10:33:43;;;;;;;4.38;1.50;;;;;;;;;;4999142;28;20170;-70
2022/05/12 10:36:23;;;;;;;1.88;1.33;;;;;;;;;;4999172;28;20181;-70
2022/05/12 10:38:58;;;;;;;2.47;1.67;;;;;;;;;;4999213;28;20296;-70
2022/05/12 10:41:33;;;;;;;2.95;1.52;;;;;;;;;;4994201;28;20211;-71
2022/05/12 10:44:16;;;;;;;4.43;1.70;;;;;;;;;;4991701;28;20909;-71
2022/05/12 10:47:00;;;;;;;2.67;1.40;;;;;;;;;;4993352;28;20179;-70
2022/05/12 10:49:29;;;;;;;2.28;1.35;;;;;;;;;;4988415;28;20213;-70
2022/05/12 10:52:03;;;;;;;2.30;1.60;;;;;;;;;;4993034;28;20200;-71
2022/05/12 10:54:48;;;;;;;3.50;1.60;;;;;;;;;;4981537;28;20194;-70
2022/05/12 10:57:28;;;;;;;2.38;1.40;;;;;;;;;;4977887;28;20208;-71
2022/05/12 10:59:54;;;;;;;3.30;1.50;;;;;;;;;;4997208;28;20193;-71
2022/05/12 11:02:26;;;;;;;2.90;1.45;;;;;;;;;;4989575;28;20778;-70
2022/05/12 11:05:10;;;;;;;2.22;1.30;;;;;;;;;;4990266;28;20329;-71
2022/05/12 11:07:39;;;;;;;2.17;1.40;;;;;;;;;;4992804;28;24121;-71
2022/05/12 11:10:08;;;;;;;2.85;1.67;;;;;;;;;;4989079;28;20245;-71
2022/05/12 11:12:36;;;;;;;5.13;2.15;;;;;;;;;;4990252;28;20182;-73
2022/05/12 11:15:10;;;;;;;4.82;1.77;;;;;;;;;;4984862;28;20784;-75
2022/05/12 11:17:48;;;;;;;4.85;1.83;;;;;;;;;;4988812;28;20689;-71
2022/05/12 11:20:25;;;;;;;5.00;2.10;;;;;;;;;;4981401;28;20194;-72
2022/05/12 11:23:16;;;;;;;4.25;2.05;;;;;;;;;;4995338;28;20277;-72
2022/05/12 11:25:48;;;;;;;4.18;2.22;;;;;;;;;;4994502;28;21432;-71
2022/05/12 11:31:05;;;;;;;4.13;2.15;;;;;;;;;;4990533;28;20243;-71
2022/05/12 11:33:35;;;;;;;6.80;2.53;;;;;;;;;;4990269;28;20187;-72
2022/05/12 11:36:01;;;;;;;3.65;2.17;;;;;;;;;;4983963;28;20270;-71
2022/05/12 11:38:39;;;;;;;3.58;2.10;;;;;;;;;;4987072;28;20352;-72
2022/05/12 11:41:30;;;;;;;3.90;1.90;;;;;;;;;;4985320;28;20198;-72
2022/05/12 11:44:26;;;;;;;3.80;1.80;;;;;;;;;;4985535;28;20209;-73
2022/05/12 11:46:55;;;;;;;4.80;2.00;;;;;;;;;;4979581;28;20275;-71
2022/05/12 11:49:36;;;;;;;4.90;2.05;;;;;;;;;;4990138;28;20793;-73
2022/05/12 11:52:21;;;;;;;5.32;2.78;;;;;;;;;;4987986;28;20324;-71
2022/05/12 11:54:57;;;;;;;2.90;2.00;;;;;;;;;;4987140;28;20729;-70
2022/05/12 11:57:32;;;;;;;5.15;2.28;;;;;;;;;;4985928;28;20189;-71
2022/05/12 11:59:58;;;;;;;4.38;2.03;;;;;;;;;;4991386;28;20185;-72
2022/05/12 12:02:30;;;;;;;4.72;2.65;;;;;;;;;;4991606;28;21139;-71
2022/05/12 12:04:56;;;;;;;8.43;2.83;;;;;;;;;;4986714;28;20241;-72
2022/05/12 12:07:31;;;;;;;4.65;2.25;;;;;;;;;;4995718;28;20550;-72
2022/05/12 12:10:07;;;;;;;3.30;2.20;;;;;;;;;;4989071;28;21234;-71
2022/05/12 12:12:42;;;;;;;3.45;1.95;;;;;;;;;;4993649;28;20189;-71
2022/05/12 12:15:09;;;;;;;4.13;2.63;;;;;;;;;;4990925;28;20245;-71
2022/05/12 12:17:36;;;;;;;3.70;2.30;;;;;;;;;;4988620;28;20186;-71
2022/05/12 12:20:05;;;;;;;3.65;1.80;;;;;;;;;;4992108;28;20202;-71
2022/05/12 12:22:37;;;;;;;6.47;2.50;;;;;;;;;;4990127;28;21072;-71
2022/05/12 12:25:09;;;;;;;4.45;2.15;;;;;;;;;;4993236;28;20185;-72
2022/05/12 12:27:41;;;;;;;7.75;2.40;;;;;;;;;;4991419;28;20278;-70
2022/05/12 12:30:24;;;;;;;5.45;2.60;;;;;;;;;;4990873;28;20236;-70
2022/05/12 12:33:08;;;;;;;6.70;2.38;;;;;;;;;;4990683;28;20244;-71
2022/05/12 12:36:10;;;;;;;5.60;2.60;;;;;;;;;;4985667;28;20179;-71
2022/05/12 12:38:44;;;;;;;4.20;2.30;;;;;;;;;;4970556;28;20193;-71
2022/05/12 12:41:11;;;;;;;7.38;2.60;;;;;;;;;;4991582;28;20582;-71
2022/05/12 12:43:38;;;;;;;5.07;2.40;;;;;;;;;;4993827;28;20279;-70
2022/05/12 12:46:15;;;;;;;5.68;2.30;;;;;;;;;;4989214;28;20796;-71
2022/05/12 12:48:44;;;;;;;3.20;2.42;;;;;;;;;;4994049;28;20260;-72
2022/05/12 12:51:10;;;;;;;4.50;2.58;;;;;;;;;;4991588;28;20182;-71
2022/05/12 12:56:31;;;;;;;3.47;2.58;;;;;;;;;;4976769;28;20189;-70
2022/05/12 12:58:58;;;;;;;5.18;2.72;;;;;;;;;;4990392;28;20525;-71
2022/05/12 13:01:23;;;;;;;5.30;2.50;;;;;;;;;;4980175;28;20193;-70
2022/05/12 13:03:53;;;;;;;4.00;2.30;;;;;;;;;;4984830;28;20725;-70
2022/05/12 13:06:26;;;;;;;4.30;2.45;;;;;;;;;;4986135;28;20225;-71
2022/05/12 13:08:59;;;;;;;5.50;2.50;;;;;;;;;;4987969;28;20576;-71
2022/05/12 13:11:25;;;;;;;8.70;3.05;;;;;;;;;;4986189;28;20243;-70
2022/05/12 13:13:53;;;;;;;7.13;2.65;;;;;;;;;;4987996;28;20238;-70
2022/05/12 13:16:20;;;;;;;7.85;2.80;;;;;;;;;;4981895;28;20194;-70
2022/05/12 13:18:48;;;;;;;4.45;2.80;;;;;;;;;;4961208;28;20201;-73
2022/05/12 13:21:26;;;;;;;3.78;3.17;;;;;;;;;;4986577;28;20196;-73
2022/05/12 13:23:59;;;;;;;7.90;2.88;;;;;;;;;;4991024;28;20190;-72
2022/05/12 13:26:25;;;;;;;5.55;3.33;;;;;;;;;;4989041;28;20193;-73
2022/05/12 13:28:51;;;;;;;5.70;2.92;;;;;;;;;;4988071;28;20210;-73
2022/05/12 13:31:23;;;;;;;4.75;2.70;;;;;;;;;;4993636;28;20192;-73
2022/05/12 13:33:57;;;;;;;6.38;2.63;;;;;;;;;;4997094;28;20181;-73
2022/05/12 13:36:23;;;;;;;5.80;2.85;;;;;;;;;;4988552;28;20182;-73
2022/05/12 13:38:49;;;;;;;5.10;2.95;;;;;;;;;;4993958;28;20186;-73
2022/05/12 13:41:32;;;;;;;4.43;2.78;;;;;;;;;;4983149;28;20251;-73
2022/05/12 13:44:21;;;;;;;5.07;3.42;;;;;;;;;;4997432;28;20193;-73
2022/05/12 13:46:51;;;;;;;6.10;3.07;;;;;;;;;;4989976;28;20248;-73
2022/05/12 13:49:26;;;;;;;5.78;2.95;;;;;;;;;;4990263;28;20769;-73
2022/05/12 13:51:53;;;;;;;5.82;3.25;;;;;;;;;;5002541;28;20200;-73
2022/05/12 13:54:22;;;;;;;5.30;2.90;;;;;;;;;;4995973;28;20284;-73
2022/05/12 13:56:48;;;;;;;4.82;2.40;;;;;;;;;;4996734;28;20529;-73
2022/05/12 13:59:23;;;;;;;9.13;2.70;;;;;;;;;;4996522;28;21138;-73
2022/05/12 14:01:50;;;;;;;6.18;3.00;;;;;;;;;;4988955;28;20703;-73
2022/05/12 14:04:20;;;;;;;6.73;2.70;;;;;;;;;;4993079;28;20238;-73
2022/05/12 14:06:58;;;;;;;7.30;2.70;;;;;;;;;;4982816;28;20224;-73
2022/05/12 14:09:25;;;;;;;4.47;2.53;;;;;;;;;;4982563;28;20213;-72
2022/05/12 14:12:14;;;;;;;7.13;2.70;;;;;;;;;;4985983;28;20313;-72
2022/05/12 14:20:15;;;;;;;3.83;2.63;;;;;;;;;;4987092;28;20552;-72
2022/05/12 14:22:42;;;;;;;12.07;2.55;;;;;;;;;;4987644;28;20260;-72
2022/05/12 14:25:15;;;;;;;5.93;3.00;;;;;;;;;;4987987;28;20207;-72
2022/05/12 14:27:41;;;;;;;5.77;2.80;;;;;;;;;;4979889;28;20687;-72
2022/05/12 14:30:09;;;;;;;6.15;2.60;;;;;;;;;;4980336;28;20213;-72
2022/05/12 14:32:39;;;;;;;5.70;2.30;;;;;;;;;;4981146;28;20178;-73
2022/05/12 14:35:06;;;;;;;7.27;2.77;;;;;;;;;;4973479;28;20272;-73
2022/05/12 14:37:32;;;;;;;4.77;2.70;;;;;;;;;;4976779;28;20253;-73
2022/05/12 14:39:59;;;;;;;7.03;3.40;;;;;;;;;;4993095;28;20616;-73
2022/05/12 14:42:25;;;;;;;7.87;3.27;;;;;;;;;;4986359;28;20190;-73
2022/05/12 14:44:51;;;;;;;4.63;3.20;;;;;;;;;;4995575;28;20194;-73
2022/05/12 14:47:19;;;;;;;6.43;3.10;;;;;;;;;;4988311;28;20193;-73
2022/05/12 14:49:48;;;;;;;5.47;2.70;;;;;;;;;;4980177;28;20210;-72
2022/05/12 14:52:16;;;;;;;10.77;3.27;;;;;;;;;;4976588;28;20209;-73
2022/05/12 14:54:42;;;;;;;4.60;2.60;;;;;;;;;;4981642;28;20931;-73
2022/05/12 14:57:09;;;;;;;8.20;3.30;;;;;;;;;;4978739;28;20189;-73
2022/05/12 14:59:35;;;;;;;6.00;2.70;;;;;;;;;;4948434;28;20197;-73
2022/05/12 15:02:01;;;;;;;6.07;2.75;;;;;;;;;;4977351;28;20217;-73
2022/05/12 15:04:28;;;;;;;3.85;2.22;;;;;;;;;;4989681;28;20348;-73
2022/05/12 15:06:54;;;;;;;4.67;2.40;;;;;;;;;;4982003;28;20190;-73
2022/05/12 15:09:20;;;;;;;4.90;2.23;;;;;;;;;;4979253;28;20222;-73
2022/05/12 15:11:46;;;;;;;3.60;2.10;;;;;;;;;;4976347;28;20199;-74
2022/05/12 15:14:12;;;;;;;4.37;2.40;;;;;;;;;;4991676;28;20249;-73
2022/05/12 15:16:39;;;;;;;3.23;2.07;;;;;;;;;;4976576;28;20194;-74
2022/05/12 15:19:04;;;;;;;5.27;2.50;;;;;;;;;;4981193;28;20183;-70
2022/05/12 15:21:30;;;;;;;3.63;2.00;;;;;;;;;;4974633;28;20277;-70